Time;durP1;ratioP1;P1;durP2;ratioP2;P2;SDS_P1;SDS_P2;PMS_P1;PMS_P2;Temp;Humidity;BMP_temperature;BMP_pressure;BME280_temperature;BME280_humidity;BME280_pressure;Samples;Min_cycle;Max_cycle;Signal;HPM_P1;HPM_P2
2022/10/11 00:00:18;;;;;;;;;;;;;;;15.61;66.95;102107.00;1256039;23;653;-75
2022/10/11 00:01:09;;;;;;;;;;;;;;;15.61;67.01;102115.06;1256133;23;626;-75
2022/10/11 00:01:59;;;;;;;;;;;;;;;15.62;66.88;102116.78;1256121;23;650;-75
2022/10/11 00:02:49;;;;;;;;;;;;;;;15.63;66.83;102115.84;1256172;23;649;-74
2022/10/11 00:03:40;;;;;;;;;;;;;;;15.60;67.27;102118.72;1253691;23;1104;-74
2022/10/11 00:04:30;;;;;;;;;;;;;;;15.60;66.99;102113.34;1256194;23;646;-74
2022/10/11 00:05:21;;;;;;;;;;;;;;;15.60;67.02;102114.19;1256203;23;650;-74
2022/10/11 00:06:11;;;;;;;;;;;;;;;15.62;66.86;102116.78;1256124;23;622;-74
2022/10/11 00:07:02;;;;;;;;;;;;;;;15.62;66.95;102114.97;1255957;23;681;-74
2022/10/11 00:07:52;;;;;;;;;;;;;;;15.62;66.98;102106.91;1256237;23;653;-74
2022/10/11 00:08:42;;;;;;;;;;;;;;;15.65;66.88;102115.75;1256425;23;640;-73
2022/10/11 00:09:33;;;;;;;;;;;;;;;15.65;66.99;102121.09;1255774;23;665;-74
2022/10/11 00:10:23;;;;;;;;;;;;;;;15.63;66.99;102115.84;1256400;23;656;-74
2022/10/11 00:11:14;;;;;;;;;;;;;;;15.60;67.03;102118.72;1256533;23;617;-74
2022/10/11 00:12:04;;;;;;;;;;;;;;;15.59;67.04;102117.84;1253935;23;587;-74
2022/10/11 00:12:54;;;;;;;;;;;;;;;15.60;67.11;102114.19;1256418;23;684;-74
2022/10/11 00:13:45;;;;;;;;;;;;;;;15.60;66.93;102114.19;1256544;23;633;-74
2022/10/11 00:14:35;;;;;;;;;;;;;;;15.62;67.06;102117.66;1256516;23;573;-74
2022/10/11 00:15:26;;;;;;;;;;;;;;;15.61;67.11;102120.44;1256381;23;661;-74
2022/10/11 00:16:16;;;;;;;;;;;;;;;15.60;67.25;102110.66;1256633;23;1909;-74
2022/10/11 00:17:07;;;;;;;;;;;;;;;15.62;67.00;102116.78;1256458;23;660;-73
2022/10/11 00:17:57;;;;;;;;;;;;;;;15.62;66.93;102117.66;1255702;23;638;-74
2022/10/11 00:18:48;;;;;;;;;;;;;;;15.61;67.10;102121.31;1254120;23;599;-74
2022/10/11 00:19:38;;;;;;;;;;;;;;;15.61;67.08;102120.44;1256508;23;610;-74
2022/10/11 00:20:29;;;;;;;;;;;;;;;15.62;67.13;102122.16;1256399;23;788;-74
2022/10/11 00:21:20;;;;;;;;;;;;;;;15.63;67.25;102116.69;1256574;23;724;-74
2022/10/11 00:22:10;;;;;;;;;;;;;;;15.63;67.15;102126.59;1255702;23;653;-73
2022/10/11 00:23:01;;;;;;;;;;;;;;;15.59;67.13;102123.22;1256407;23;614;-73
2022/10/11 00:23:51;;;;;;;;;;;;;;;15.62;67.02;102122.16;1253337;23;603;-74
2022/10/11 00:24:42;;;;;;;;;;;;;;;15.62;67.06;102122.16;1256422;23;625;-74
2022/10/11 00:25:32;;;;;;;;;;;;;;;15.63;66.93;102129.28;1256423;23;649;-74
2022/10/11 00:26:23;;;;;;;;;;;;;;;15.60;66.78;102130.31;1256396;23;625;-74
2022/10/11 00:27:13;;;;;;;;;;;;;;;15.59;67.05;102125.91;1256420;23;634;-74
2022/10/11 00:28:03;;;;;;;;;;;;;;;15.60;66.99;102124.09;1247868;23;622;-74
2022/10/11 00:28:54;;;;;;;;;;;;;;;15.57;67.14;102127.88;1249485;23;669;-74
2022/10/11 00:29:45;;;;;;;;;;;;;;;15.58;67.00;102126.91;1254700;23;646;-74
2022/10/11 00:30:35;;;;;;;;;;;;;;;15.58;66.87;102124.22;1256432;23;784;-74
2022/10/11 00:31:25;;;;;;;;;;;;;;;15.60;66.88;102130.31;1256402;23;619;-74
2022/10/11 00:32:16;;;;;;;;;;;;;;;15.60;66.86;102132.16;1256427;23;649;-74
2022/10/11 00:33:06;;;;;;;;;;;;;;;15.60;67.00;102132.16;1256482;23;637;-74
2022/10/11 00:33:57;;;;;;;;;;;;;;;15.60;66.72;102129.47;1256600;23;650;-74
2022/10/11 00:34:47;;;;;;;;;;;;;;;15.60;66.76;102138.38;1256612;23;602;-74
2022/10/11 00:35:38;;;;;;;;;;;;;;;15.57;66.91;102135.94;1256408;23;676;-74
2022/10/11 00:36:28;;;;;;;;;;;;;;;15.58;67.15;102136.78;1255516;23;1915;-74
2022/10/11 00:37:18;;;;;;;;;;;;;;;15.56;66.63;102142.25;1256387;23;601;-74
2022/10/11 00:38:09;;;;;;;;;;;;;;;15.56;67.03;102136.88;1247340;23;602;-74
2022/10/11 00:38:59;;;;;;;;;;;;;;;15.56;66.64;102133.34;1249344;23;646;-74
2022/10/11 00:39:50;;;;;;;;;;;;;;;15.58;67.01;102140.34;1249317;23;610;-74
2022/10/11 00:40:40;;;;;;;;;;;;;;;15.55;66.88;102143.22;1247547;23;726;-74
2022/10/11 00:41:31;;;;;;;;;;;;;;;15.56;66.93;102139.56;1253117;23;629;-74
2022/10/11 00:42:21;;;;;;;;;;;;;;;15.57;66.83;102149.38;1255681;23;626;-74
2022/10/11 00:43:11;;;;;;;;;;;;;;;15.56;67.14;102136.88;1256422;23;618;-74
2022/10/11 00:44:02;;;;;;;;;;;;;;;15.56;66.82;102139.56;1256312;23;673;-74
2022/10/11 00:44:52;;;;;;;;;;;;;;;15.56;66.87;102139.56;1253928;23;658;-74
2022/10/11 00:45:43;;;;;;;;;;;;;;;15.56;66.78;102144.94;1256266;23;645;-73
2022/10/11 00:46:33;;;;;;;;;;;;;;;15.57;66.91;102146.69;1256606;23;599;-75
2022/10/11 00:47:23;;;;;;;;;;;;;;;15.58;66.78;102142.16;1256432;23;634;-74
2022/10/11 00:48:14;;;;;;;;;;;;;;;15.58;66.96;102148.41;1256414;23;646;-75
2022/10/11 00:49:04;;;;;;;;;;;;;;;15.57;66.70;102143.13;1253866;23;647;-73
2022/10/11 00:49:55;;;;;;;;;;;;;;;15.56;66.93;102150.31;1256203;23;603;-73
2022/10/11 00:50:45;;;;;;;;;;;;;;;15.56;66.87;102144.09;1253849;23;587;-73
2022/10/11 00:51:36;;;;;;;;;;;;;;;15.55;66.95;102145.00;1256403;23;622;-74
2022/10/11 00:52:28;;;;;;;;;;;;;;;15.52;67.13;102142.53;1256462;23;629;-74
2022/10/11 00:53:18;;;;;;;;;;;;;;;15.54;66.92;102141.47;1249262;23;677;-74
2022/10/11 00:54:08;;;;;;;;;;;;;;;15.54;67.09;102152.22;1249270;23;614;-74
2022/10/11 00:54:59;;;;;;;;;;;;;;;15.54;66.91;102145.97;1255568;23;678;-74
2022/10/11 00:55:49;;;;;;;;;;;;;;;15.54;67.01;102141.47;1253910;23;599;-74
2022/10/11 00:56:40;;;;;;;;;;;;;;;15.54;67.09;102145.97;1256452;23;772;-74
2022/10/11 00:57:30;;;;;;;;;;;;;;;15.54;66.97;102141.47;1256544;23;594;-74
2022/10/11 00:58:20;;;;;;;;;;;;;;;15.54;67.24;102146.84;1256429;23;634;-74
2022/10/11 00:59:11;;;;;;;;;;;;;;;15.55;67.18;102145.91;1254108;23;650;-74
2022/10/11 01:00:01;;;;;;;;;;;;;;;15.56;67.01;102144.94;1256410;23;660;-74
2022/10/11 01:00:52;;;;;;;;;;;;;;;15.56;67.16;102144.09;1256418;23;657;-74
2022/10/11 01:01:43;;;;;;;;;;;;;;;15.58;66.83;102136.78;1255610;23;642;-74
2022/10/11 01:02:33;;;;;;;;;;;;;;;15.56;67.07;102144.94;1256239;23;669;-74
2022/10/11 01:03:24;;;;;;;;;;;;;;;15.56;66.97;102147.63;1256170;23;1104;-74
2022/10/11 01:04:14;;;;;;;;;;;;;;;15.53;67.04;102152.31;1256446;23;632;-74
2022/10/11 01:05:05;;;;;;;;;;;;;;;15.54;66.66;102149.53;1256361;23;661;-74
2022/10/11 01:05:55;;;;;;;;;;;;;;;15.56;66.82;102144.94;1256218;23;603;-74
2022/10/11 01:06:45;;;;;;;;;;;;;;;15.54;66.88;102149.53;1256358;23;661;-73
2022/10/11 01:07:36;;;;;;;;;;;;;;;15.53;67.23;102153.16;1255686;23;1016;-74
2022/10/11 01:08:27;;;;;;;;;;;;;;;15.55;67.07;102147.69;1256381;23;666;-73
2022/10/11 01:09:17;;;;;;;;;;;;;;;15.54;66.62;102146.84;1255707;23;622;-74
2022/10/11 01:10:08;;;;;;;;;;;;;;;15.55;66.92;102153.06;1256419;23;665;-73
2022/10/11 01:10:58;;;;;;;;;;;;;;;15.54;66.72;102146.84;1256580;23;622;-74
2022/10/11 01:11:48;;;;;;;;;;;;;;;15.56;67.10;102150.31;1256449;23;606;-74
2022/10/11 01:12:39;;;;;;;;;;;;;;;15.57;67.02;102146.69;1256387;23;661;-73
2022/10/11 01:13:29;;;;;;;;;;;;;;;15.54;67.10;102144.16;1256481;23;614;-74
2022/10/11 01:14:20;;;;;;;;;;;;;;;15.50;66.96;102145.31;1254051;23;666;-74
2022/10/11 01:15:10;;;;;;;;;;;;;;;15.53;67.07;102147.81;1253774;23;719;-75
2022/10/11 01:16:01;;;;;;;;;;;;;;;15.53;67.09;102146.94;1256337;23;637;-74
2022/10/11 01:16:51;;;;;;;;;;;;;;;15.55;66.79;102153.06;1256357;23;625;-74
2022/10/11 01:17:42;;;;;;;;;;;;;;;15.53;67.21;102158.53;1256459;23;610;-73
2022/10/11 01:18:32;;;;;;;;;;;;;;;15.50;67.02;102155.19;1256421;23;650;-75
2022/10/11 01:19:22;;;;;;;;;;;;;;;15.52;66.99;102154.13;1253827;23;630;-74
2022/10/11 01:20:13;;;;;;;;;;;;;;;15.53;66.94;102158.53;1256095;23;625;-73
2022/10/11 01:21:03;;;;;;;;;;;;;;;15.53;67.05;102157.69;1253803;23;627;-73
2022/10/11 01:21:54;;;;;;;;;;;;;;;15.51;67.04;102155.09;1255797;23;666;-74
2022/10/11 01:22:44;;;;;;;;;;;;;;;15.53;66.87;102150.50;1253804;23;654;-74
2022/10/11 01:23:35;;;;;;;;;;;;;;;15.51;67.17;102152.41;1256192;23;665;-75
2022/10/11 01:24:25;;;;;;;;;;;;;;;15.48;67.44;102160.66;1253721;23;619;-74
2022/10/11 01:25:16;;;;;;;;;;;;;;;15.48;67.45;102155.28;1256183;23;661;-74
2022/10/11 01:26:06;;;;;;;;;;;;;;;15.51;67.43;102151.53;1256379;23;631;-74
2022/10/11 01:26:56;;;;;;;;;;;;;;;15.52;67.40;102153.28;1256354;23;603;-74
2022/10/11 01:27:47;;;;;;;;;;;;;;;15.53;67.29;102155.00;1256254;23;669;-74
2022/10/11 01:28:37;;;;;;;;;;;;;;;15.50;67.65;102153.38;1256326;23;622;-74
2022/10/11 01:29:28;;;;;;;;;;;;;;;15.49;67.67;102142.72;1253993;23;670;-74
2022/10/11 01:30:18;;;;;;;;;;;;;;;15.50;67.53;102153.38;1256426;23;621;-74
2022/10/11 01:31:09;;;;;;;;;;;;;;;15.50;67.22;102149.81;1253944;23;594;-74
2022/10/11 01:31:59;;;;;;;;;;;;;;;15.49;67.46;102154.31;1256541;23;626;-74
2022/10/11 01:32:49;;;;;;;;;;;;;;;15.49;67.44;102143.56;1253967;23;631;-74
2022/10/11 01:33:40;;;;;;;;;;;;;;;15.50;67.45;102161.44;1256169;23;654;-74
2022/10/11 01:34:30;;;;;;;;;;;;;;;15.51;67.49;102155.09;1256448;23;736;-73
2022/10/11 01:35:21;;;;;;;;;;;;;;;15.50;67.40;102156.06;1256103;23;657;-74
2022/10/11 01:36:11;;;;;;;;;;;;;;;15.49;67.60;102156.16;1255738;23;1934;-74
2022/10/11 01:37:01;;;;;;;;;;;;;;;15.50;67.26;102156.06;1256385;23;787;-73
2022/10/11 01:37:52;;;;;;;;;;;;;;;15.53;67.29;102160.38;1256241;23;630;-74
2022/10/11 01:38:42;;;;;;;;;;;;;;;15.49;67.40;102157.00;1256497;23;621;-74
2022/10/11 01:39:33;;;;;;;;;;;;;;;15.51;67.37;102160.47;1253945;23;626;-73
2022/10/11 01:40:23;;;;;;;;;;;;;;;15.49;67.35;102166.91;1256446;23;618;-73
2022/10/11 01:41:14;;;;;;;;;;;;;;;15.49;67.15;102159.69;1256369;23;661;-73
2022/10/11 01:42:04;;;;;;;;;;;;;;;15.50;67.46;102156.06;1254001;23;619;-73
2022/10/11 01:42:54;;;;;;;;;;;;;;;15.52;67.08;102164.03;1253724;23;764;-73
2022/10/11 01:43:45;;;;;;;;;;;;;;;15.54;67.32;102162.09;1256241;23;634;-73
2022/10/11 01:44:36;;;;;;;;;;;;;;;15.52;67.17;102162.19;1256448;23;619;-73
2022/10/11 01:45:26;;;;;;;;;;;;;;;15.51;67.40;102163.16;1255478;23;586;-73
2022/10/11 01:46:17;;;;;;;;;;;;;;;15.51;66.88;102165.84;1253953;23;709;-73
2022/10/11 01:47:07;;;;;;;;;;;;;;;15.50;67.58;102164.13;1253734;23;644;-73
2022/10/11 01:47:58;;;;;;;;;;;;;;;15.50;67.13;102172.16;1256309;23;661;-73
2022/10/11 01:48:48;;;;;;;;;;;;;;;15.50;67.25;102166.81;1256368;23;626;-73
2022/10/11 01:49:38;;;;;;;;;;;;;;;15.52;67.50;102166.69;1256397;23;646;-73
2022/10/11 01:50:29;;;;;;;;;;;;;;;15.52;66.93;102161.31;1256261;23;627;-74
2022/10/11 01:51:19;;;;;;;;;;;;;;;15.53;66.97;102166.59;1256308;23;653;-74
2022/10/11 01:52:10;;;;;;;;;;;;;;;15.50;67.11;102172.16;1256266;23;653;-73
2022/10/11 01:53:00;;;;;;;;;;;;;;;15.49;67.13;102167.75;1253673;23;566;-74
2022/10/11 01:53:51;;;;;;;;;;;;;;;15.51;67.28;102178.41;1256267;23;673;-74
2022/10/11 01:54:41;;;;;;;;;;;;;;;15.50;67.29;102172.16;1256131;23;645;-74
2022/10/11 01:55:31;;;;;;;;;;;;;;;15.51;67.11;102173.03;1256215;23;626;-74
2022/10/11 01:56:22;;;;;;;;;;;;;;;15.48;67.08;102174.09;1253782;23;1893;-74
2022/10/11 01:57:12;;;;;;;;;;;;;;;15.49;67.33;102166.91;1256407;23;615;-74
2022/10/11 01:58:03;;;;;;;;;;;;;;;15.44;67.27;102172.56;1256279;23;638;-73
2022/10/11 01:58:53;;;;;;;;;;;;;;;15.44;67.19;102175.25;1256258;23;614;-73
2022/10/11 01:59:44;;;;;;;;;;;;;;;15.47;67.37;102167.00;1256298;23;618;-75
2022/10/11 02:00:34;;;;;;;;;;;;;;;15.50;67.31;102174.84;1256152;23;661;-73
2022/10/11 02:01:24;;;;;;;;;;;;;;;15.51;67.31;102173.91;1256393;23;708;-73
2022/10/11 02:02:15;;;;;;;;;;;;;;;15.51;67.20;102167.66;1256294;23;625;-74
2022/10/11 02:03:05;;;;;;;;;;;;;;;15.48;67.25;102168.72;1256522;23;617;-73
2022/10/11 02:03:56;;;;;;;;;;;;;;;15.47;67.11;102175.06;1256255;23;653;-74
2022/10/11 02:04:46;;;;;;;;;;;;;;;15.45;66.84;102168.91;1253968;23;606;-74
2022/10/11 02:05:37;;;;;;;;;;;;;;;15.43;67.23;102170.81;1255737;23;668;-75
2022/10/11 02:06:27;;;;;;;;;;;;;;;15.44;66.86;102172.56;1256230;23;650;-74
2022/10/11 02:07:17;;;;;;;;;;;;;;;15.46;67.02;102170.63;1253813;23;606;-74
2022/10/11 02:08:08;;;;;;;;;;;;;;;15.47;66.93;102177.75;1256344;23;637;-74
2022/10/11 02:08:58;;;;;;;;;;;;;;;15.45;67.32;102174.28;1256289;23;625;-73
2022/10/11 02:09:49;;;;;;;;;;;;;;;15.47;67.15;102174.19;1256309;23;609;-74
2022/10/11 02:10:39;;;;;;;;;;;;;;;15.44;67.13;102177.94;1256348;23;700;-74
2022/10/11 02:11:30;;;;;;;;;;;;;;;15.43;67.02;102170.81;1256216;23;646;-74
2022/10/11 02:12:20;;;;;;;;;;;;;;;15.43;67.05;102176.19;1254019;23;630;-74
2022/10/11 02:13:11;;;;;;;;;;;;;;;15.44;67.27;102177.06;1256276;23;621;-74
2022/10/11 02:14:01;;;;;;;;;;;;;;;15.44;67.29;102171.69;1255286;23;617;-74
2022/10/11 02:14:52;;;;;;;;;;;;;;;15.42;67.25;102170.91;1256256;23;637;-74
2022/10/11 02:15:42;;;;;;;;;;;;;;;15.42;67.33;102169.09;1256170;23;633;-73
2022/10/11 02:16:32;;;;;;;;;;;;;;;15.44;66.87;102177.06;1256134;23;1901;-74
2022/10/11 02:17:23;;;;;;;;;;;;;;;15.45;66.91;102168.03;1256257;23;657;-74
2022/10/11 02:18:13;;;;;;;;;;;;;;;15.44;66.81;102169.88;1256381;23;634;-74
2022/10/11 02:19:04;;;;;;;;;;;;;;;15.45;66.89;102168.91;1247583;23;681;-74
2022/10/11 02:19:54;;;;;;;;;;;;;;;15.41;66.87;102172.75;1248579;23;634;-73
2022/10/11 02:20:45;;;;;;;;;;;;;;;15.40;67.45;102168.38;1255482;23;1285;-74
2022/10/11 02:21:35;;;;;;;;;;;;;;;15.41;66.99;102174.56;1256222;23;525;-74
2022/10/11 02:22:26;;;;;;;;;;;;;;;15.42;67.19;102171.78;1256281;23;645;-73
2022/10/11 02:23:16;;;;;;;;;;;;;;;15.41;66.93;102164.69;1256147;23;748;-74
2022/10/11 02:24:06;;;;;;;;;;;;;;;15.40;66.92;102171.06;1256243;23;618;-75
2022/10/11 02:24:57;;;;;;;;;;;;;;;15.41;66.92;102164.69;1256236;23;676;-73
2022/10/11 02:25:47;;;;;;;;;;;;;;;15.42;66.69;102173.63;1253523;23;586;-73
2022/10/11 02:26:38;;;;;;;;;;;;;;;15.44;66.79;102172.56;1256216;23;646;-73
2022/10/11 02:27:28;;;;;;;;;;;;;;;15.42;66.87;102174.47;1256151;23;630;-73
2022/10/11 02:28:18;;;;;;;;;;;;;;;15.45;67.04;102165.34;1253728;23;718;-73
2022/10/11 02:29:09;;;;;;;;;;;;;;;15.42;66.98;102163.72;1256339;23;680;-73
2022/10/11 02:30:00;;;;;;;;;;;;;;;15.45;67.04;102168.91;1256194;23;610;-73
2022/10/11 02:30:50;;;;;;;;;;;;;;;15.41;66.93;102167.38;1255558;23;657;-74
2022/10/11 02:31:40;;;;;;;;;;;;;;;15.45;66.56;102168.03;1255968;23;657;-73
2022/10/11 02:32:31;;;;;;;;;;;;;;;15.45;66.65;102168.91;1253931;23;657;-73
2022/10/11 02:33:21;;;;;;;;;;;;;;;15.43;66.58;102169.97;1256282;23;595;-73
2022/10/11 02:34:12;;;;;;;;;;;;;;;15.42;66.84;102169.09;1255441;23;621;-73
2022/10/11 02:35:03;;;;;;;;;;;;;;;15.42;66.85;102176.28;1255473;23;598;-73
2022/10/11 02:35:53;;;;;;;;;;;;;;;15.41;66.78;102166.50;1256186;23;594;-73
2022/10/11 02:36:43;;;;;;;;;;;;;;;15.43;66.87;102169.97;1256265;23;720;-73
2022/10/11 02:37:34;;;;;;;;;;;;;;;15.40;66.93;102165.69;1256260;23;634;-73
2022/10/11 02:38:24;;;;;;;;;;;;;;;15.40;66.85;102168.38;1255413;23;773;-73
2022/10/11 02:39:15;;;;;;;;;;;;;;;15.42;66.58;102174.47;1256211;23;626;-73
2022/10/11 02:40:05;;;;;;;;;;;;;;;15.42;66.77;102168.25;1256299;23;661;-72
2022/10/11 02:40:56;;;;;;;;;;;;;;;15.40;67.09;102179.13;1256395;23;664;-73
2022/10/11 02:41:46;;;;;;;;;;;;;;;15.38;67.06;102175.66;1247613;23;631;-73
2022/10/11 02:42:36;;;;;;;;;;;;;;;15.42;66.88;102174.47;1249074;23;685;-73
2022/10/11 02:43:27;;;;;;;;;;;;;;;15.41;66.85;102178.13;1255265;23;681;-73
2022/10/11 02:44:17;;;;;;;;;;;;;;;15.39;67.22;102177.38;1255269;23;681;-73
2022/10/11 02:45:08;;;;;;;;;;;;;;;15.43;66.90;102172.66;1256266;23;598;-72
2022/10/11 02:45:58;;;;;;;;;;;;;;;15.41;66.86;102182.63;1256048;23;658;-73
2022/10/11 02:46:49;;;;;;;;;;;;;;;15.39;67.03;102180.06;1256158;23;595;-73
2022/10/11 02:47:39;;;;;;;;;;;;;;;15.37;67.04;102181.13;1256083;23;993;-73
2022/10/11 02:48:30;;;;;;;;;;;;;;;15.37;67.17;102181.13;1253754;23;615;-73
2022/10/11 02:49:20;;;;;;;;;;;;;;;15.37;66.91;102176.63;1253828;23;630;-73
2022/10/11 02:50:10;;;;;;;;;;;;;;;15.36;66.71;102174.88;1256204;23;654;-73
2022/10/11 02:51:01;;;;;;;;;;;;;;;15.35;67.25;102189.28;1256065;23;743;-73
2022/10/11 02:51:51;;;;;;;;;;;;;;;15.38;67.29;102181.03;1256173;23;626;-73
2022/10/11 02:52:42;;;;;;;;;;;;;;;15.39;67.04;102182.75;1256170;23;666;-72
2022/10/11 02:53:32;;;;;;;;;;;;;;;15.39;66.76;102177.38;1256083;23;610;-73
2022/10/11 02:54:23;;;;;;;;;;;;;;;15.39;66.86;102180.06;1256161;23;649;-72
2022/10/11 02:55:13;;;;;;;;;;;;;;;15.39;66.94;102179.22;1247549;23;674;-73
2022/10/11 02:56:03;;;;;;;;;;;;;;;15.37;66.85;102175.75;1247332;23;654;-73
2022/10/11 02:56:54;;;;;;;;;;;;;;;15.38;66.87;102189.09;1254367;23;669;-73
2022/10/11 02:57:45;;;;;;;;;;;;;;;15.36;66.84;102185.63;1255365;23;700;-73
2022/10/11 02:58:35;;;;;;;;;;;;;;;15.38;66.76;102180.16;1255482;23;634;-73
2022/10/11 02:59:26;;;;;;;;;;;;;;;15.39;66.59;102179.22;1256214;23;611;-73
2022/10/11 03:00:16;;;;;;;;;;;;;;;15.38;66.72;102189.09;1256170;23;626;-73
2022/10/11 03:01:06;;;;;;;;;;;;;;;15.36;66.98;102190.13;1256228;23;645;-73
2022/10/11 03:01:57;;;;;;;;;;;;;;;15.35;66.92;102186.59;1256259;23;688;-73
2022/10/11 03:02:47;;;;;;;;;;;;;;;15.37;67.08;102189.19;1253551;23;670;-73
2022/10/11 03:03:38;;;;;;;;;;;;;;;15.35;67.09;102186.59;1255800;23;1068;-73
2022/10/11 03:04:28;;;;;;;;;;;;;;;15.34;66.73;102184.88;1253483;23;662;-72
2022/10/11 03:05:19;;;;;;;;;;;;;;;15.34;66.90;102187.56;1256126;23;662;-72
2022/10/11 03:06:09;;;;;;;;;;;;;;;15.39;66.84;102182.75;1256114;23;650;-73
2022/10/11 03:06:59;;;;;;;;;;;;;;;15.38;66.74;102183.72;1256208;23;662;-73
2022/10/11 03:07:50;;;;;;;;;;;;;;;15.39;66.81;102184.56;1256204;23;629;-74
2022/10/11 03:08:40;;;;;;;;;;;;;;;15.36;66.76;102184.78;1255310;23;681;-73
2022/10/11 03:09:31;;;;;;;;;;;;;;;15.34;66.75;102179.50;1256135;23;614;-73
2022/10/11 03:10:21;;;;;;;;;;;;;;;15.34;66.85;102187.56;1255412;23;618;-73
2022/10/11 03:11:12;;;;;;;;;;;;;;;15.34;67.01;102182.19;1253703;23;646;-72
2022/10/11 03:12:02;;;;;;;;;;;;;;;15.34;66.60;102186.69;1255966;23;614;-72
2022/10/11 03:12:53;;;;;;;;;;;;;;;15.30;66.98;102186.00;1256258;23;665;-72
2022/10/11 03:13:43;;;;;;;;;;;;;;;15.31;66.82;102193.09;1256049;23;629;-73
2022/10/11 03:14:33;;;;;;;;;;;;;;;15.31;66.99;102186.88;1256205;23;779;-73
2022/10/11 03:15:24;;;;;;;;;;;;;;;15.28;66.73;102185.25;1253657;23;690;-72
2022/10/11 03:16:14;;;;;;;;;;;;;;;15.30;66.85;102191.38;1253413;23;1898;-73
2022/10/11 03:17:05;;;;;;;;;;;;;;;15.28;66.75;102185.25;1253669;23;639;-73
2022/10/11 03:17:55;;;;;;;;;;;;;;;15.29;66.27;102184.28;1255505;23;610;-73
2022/10/11 03:18:46;;;;;;;;;;;;;;;15.32;66.67;102189.47;1256140;23;614;-73
2022/10/11 03:19:36;;;;;;;;;;;;;;;15.32;67.08;102192.16;1247633;23;662;-73
2022/10/11 03:20:26;;;;;;;;;;;;;;;15.35;66.80;102193.78;1249123;23;603;-73
2022/10/11 03:21:17;;;;;;;;;;;;;;;15.33;66.66;102190.34;1255116;23;693;-73
2022/10/11 03:22:07;;;;;;;;;;;;;;;15.31;66.75;102192.25;1256132;23;602;-74
2022/10/11 03:22:58;;;;;;;;;;;;;;;15.33;66.70;102188.50;1253707;23;650;-74
2022/10/11 03:23:48;;;;;;;;;;;;;;;15.32;66.57;102189.47;1256233;23;658;-73
2022/10/11 03:24:39;;;;;;;;;;;;;;;15.32;66.53;102189.47;1256179;23;638;-73
2022/10/11 03:25:29;;;;;;;;;;;;;;;15.32;66.80;102188.59;1256076;23;630;-73
2022/10/11 03:26:20;;;;;;;;;;;;;;;15.28;66.76;102187.94;1256083;23;637;-73
2022/10/11 03:27:10;;;;;;;;;;;;;;;15.29;66.62;102189.66;1256014;23;678;-73
2022/10/11 03:28:00;;;;;;;;;;;;;;;15.27;66.91;102191.56;1247240;23;623;-73
2022/10/11 03:28:51;;;;;;;;;;;;;;;15.29;66.77;102186.97;1249112;23;653;-72
2022/10/11 03:29:41;;;;;;;;;;;;;;;15.29;66.52;102195.88;1255240;23;661;-72
2022/10/11 03:30:32;;;;;;;;;;;;;;;15.31;66.45;102190.44;1256120;23;625;-72
2022/10/11 03:31:22;;;;;;;;;;;;;;;15.28;66.84;102190.63;1256046;23;634;-72
2022/10/11 03:32:13;;;;;;;;;;;;;;;15.30;66.52;102199.44;1254735;23;674;-72
2022/10/11 03:33:03;;;;;;;;;;;;;;;15.25;66.60;102197.03;1256041;23;669;-73
2022/10/11 03:33:54;;;;;;;;;;;;;;;15.28;66.53;102204.91;1256053;23;610;-73
2022/10/11 03:34:44;;;;;;;;;;;;;;;15.29;66.48;102200.41;1256234;23;673;-73
2022/10/11 03:35:34;;;;;;;;;;;;;;;15.29;66.56;102195.03;1253451;23;713;-72
2022/10/11 03:36:25;;;;;;;;;;;;;;;15.26;66.66;102203.28;1256083;23;1923;-72
2022/10/11 03:37:15;;;;;;;;;;;;;;;15.27;66.36;102205.00;1255302;23;724;-73
2022/10/11 03:38:06;;;;;;;;;;;;;;;15.29;66.40;102201.25;1256213;23;630;-73
2022/10/11 03:38:56;;;;;;;;;;;;;;;15.27;66.55;102202.31;1256003;23;678;-73
2022/10/11 03:39:47;;;;;;;;;;;;;;;15.26;66.56;102201.44;1256024;23;598;-73
2022/10/11 03:40:38;;;;;;;;;;;;;;;15.24;66.46;102203.38;1255289;23;654;-73
2022/10/11 03:41:28;;;;;;;;;;;;;;;15.23;66.28;102206.16;1256152;23;631;-72
2022/10/11 03:42:18;;;;;;;;;;;;;;;15.26;66.49;102195.22;1253556;23;634;-72
2022/10/11 03:43:09;;;;;;;;;;;;;;;15.25;66.31;102199.72;1256363;23;586;-72
2022/10/11 03:43:59;;;;;;;;;;;;;;;15.24;66.55;102202.50;1256501;23;677;-72
2022/10/11 03:44:50;;;;;;;;;;;;;;;15.24;66.46;102192.63;1256572;23;571;-72
2022/10/11 03:45:41;;;;;;;;;;;;;;;15.24;66.36;102198.00;1255796;23;606;-72
2022/10/11 03:46:31;;;;;;;;;;;;;;;15.24;66.17;102197.13;1256556;23;708;-73
2022/10/11 03:47:22;;;;;;;;;;;;;;;15.26;66.34;102195.22;1256612;23;599;-72
2022/10/11 03:48:12;;;;;;;;;;;;;;;15.24;66.12;102198.00;1256454;23;621;-73
2022/10/11 03:49:03;;;;;;;;;;;;;;;15.27;66.27;102196.94;1253937;23;634;-73
2022/10/11 03:49:53;;;;;;;;;;;;;;;15.22;66.26;102199.94;1256646;23;653;-73
2022/10/11 03:50:43;;;;;;;;;;;;;;;15.21;66.43;102191.97;1253932;23;619;-73
2022/10/11 03:51:35;;;;;;;;;;;;;;;15.22;66.26;102193.72;1256557;23;619;-73
2022/10/11 03:52:25;;;;;;;;;;;;;;;15.22;66.13;102199.06;1255785;23;653;-73
2022/10/11 03:53:16;;;;;;;;;;;;;;;15.24;65.79;102207.88;1253889;23;614;-74
2022/10/11 03:54:06;;;;;;;;;;;;;;;15.22;65.97;102202.63;1256458;23;641;-74
2022/10/11 03:54:56;;;;;;;;;;;;;;;15.22;66.04;102199.94;1256544;23;731;-73
2022/10/11 03:55:47;;;;;;;;;;;;;;;15.21;66.56;102206.28;1256528;23;637;-74
2022/10/11 03:56:37;;;;;;;;;;;;;;;15.21;65.96;102198.22;1256324;23;1920;-74
2022/10/11 03:57:28;;;;;;;;;;;;;;;15.23;66.17;102208.81;1256563;23;613;-74
2022/10/11 03:58:18;;;;;;;;;;;;;;;15.25;65.92;102206.91;1256416;23;641;-73
2022/10/11 03:59:09;;;;;;;;;;;;;;;15.24;66.09;102210.56;1256563;23;821;-74
2022/10/11 03:59:59;;;;;;;;;;;;;;;15.20;66.25;102214.41;1255743;23;602;-73
2022/10/11 04:00:50;;;;;;;;;;;;;;;15.19;66.50;102215.38;1256530;23;622;-74
2022/10/11 04:01:40;;;;;;;;;;;;;;;15.23;66.22;102216.88;1256557;23;609;-73
2022/10/11 04:02:31;;;;;;;;;;;;;;;15.25;65.94;102220.34;1256391;23;622;-73
2022/10/11 04:03:21;;;;;;;;;;;;;;;15.28;65.84;102214.78;1256423;23;660;-72
2022/10/11 04:04:12;;;;;;;;;;;;;;;15.25;66.13;102215.84;1256453;23;598;-74
2022/10/11 04:05:04;;;;;;;;;;;;;;;15.24;66.23;102218.63;1256620;23;665;-74
2022/10/11 04:05:55;;;;;;;;;;;;;;;15.20;66.19;102222.47;1255527;23;629;-74
2022/10/11 04:06:45;;;;;;;;;;;;;;;15.22;66.12;102225.94;1254218;23;728;-74
2022/10/11 04:07:36;;;;;;;;;;;;;;;15.20;66.25;102217.97;1253935;23;626;-74
2022/10/11 04:08:26;;;;;;;;;;;;;;;15.21;65.95;102224.19;1256446;23;696;-74
2022/10/11 04:09:16;;;;;;;;;;;;;;;15.19;66.41;102220.75;1256542;23;629;-74
2022/10/11 04:10:07;;;;;;;;;;;;;;;15.16;66.16;102218.25;1256521;23;618;-74
2022/10/11 04:10:57;;;;;;;;;;;;;;;15.17;66.22;102222.66;1256558;23;610;-75
2022/10/11 04:11:48;;;;;;;;;;;;;;;15.18;66.37;102221.69;1256503;23;658;-74
2022/10/11 04:12:38;;;;;;;;;;;;;;;15.17;66.02;102223.53;1256481;23;629;-74
2022/10/11 04:13:29;;;;;;;;;;;;;;;15.17;65.95;102226.22;1256545;23;641;-73
2022/10/11 04:14:19;;;;;;;;;;;;;;;15.14;66.18;102223.72;1256282;23;618;-73
2022/10/11 04:15:12;;;;;;;;;;;;;;;15.13;66.54;102230.03;1256664;23;641;-73
2022/10/11 04:16:03;;;;;;;;;;;;;;;15.16;65.99;102226.31;1253525;23;630;-73
2022/10/11 04:16:53;;;;;;;;;;;;;;;15.15;65.97;102222.75;1255569;23;673;-72
2022/10/11 04:17:44;;;;;;;;;;;;;;;15.17;66.34;102219.97;1253972;23;613;-72
2022/10/11 04:18:34;;;;;;;;;;;;;;;15.16;66.13;102229.84;1247866;23;705;-73
2022/10/11 04:19:25;;;;;;;;;;;;;;;15.17;66.17;102220.84;1249343;23;606;-73
2022/10/11 04:20:15;;;;;;;;;;;;;;;15.15;66.10;102221.88;1255533;23;653;-73
2022/10/11 04:21:05;;;;;;;;;;;;;;;15.15;66.32;102227.25;1256577;23;641;-72
2022/10/11 04:21:56;;;;;;;;;;;;;;;15.15;66.01;102224.56;1256472;23;649;-72
2022/10/11 04:22:46;;;;;;;;;;;;;;;15.15;66.23;102229.94;1256455;23;661;-72
2022/10/11 04:23:37;;;;;;;;;;;;;;;15.13;66.09;102230.03;1256385;23;614;-73
2022/10/11 04:24:27;;;;;;;;;;;;;;;15.14;66.13;102229.09;1254035;23;686;-72
2022/10/11 04:25:17;;;;;;;;;;;;;;;15.14;66.08;102229.09;1256471;23;617;-73
2022/10/11 04:26:08;;;;;;;;;;;;;;;15.11;66.48;102240.00;1256270;23;602;-72